Airfield :
LOGIN :

Register | Disclaimer

   EN    FR    IT 

 










Legend :    VFR   Marginal VFR   IFR   Intensive IFR   Very Intensive IFR
Visi :
Ceiling :
>= 8 km
>= 3000ft
5 to 8 km
1000 to 3000 ft
1500m to 5 km
500 to 1000 ft
800 to 1500m
200 to 500 ft
< 800m
< 200 ft
Symbols :   Thunderstorms  Fog  Heavy snow  Heavy precipitations  Wind > 20 kt
SIGMETs :     Misc.  Thunderstorms  Icing  Turbulence  Mountain Waves  Volcanic Ashes







- Airport Elevation : 1202 ft
- IATA code : IGS


ETSI - Ingolstadt

CURRENT METAR :
  • 120700Z 27009KT 5000 BR FEW004 BKN013 01/01 Q1021 GRN GRN TEMPO YLO

EXPIRED METARs :
  • 120620Z 27008KT 4000 BR FEW004 BKN012 01/01 Q1021 GRN GRN TEMPO YLO
  • 120520Z 26008KT 4000 -SN BR FEW004 OVC010 01/01 Q1021 GRN GRN TEMPO YLO
  • 120450Z 26007KT 4000 BR SCT004 OVC012 01/01 Q1021 GRN
  • 120420Z 27008KT 2500 -SN BR SCT004 OVC010 01/00 Q1021 YLO

TAF TAF ETSI
Valid from the 12 at 06:00 until the 12 at 15:00 UTC


120519Z 1206/1215 27007KT 9000 NSW FEW005 OVC012
TEMPO 1206/1210 27012KT 2000 -SN BKN005 OVC010
BECMG 1209/1211 27007KT 9000 NSW SCT010 OVC025
TEMPO 1210/1215 33005KT 4000 -SNRA BKN010 OVC020
No reported NOTAMs for that airfield.



MET'MAP, your aeronautical weather chart ! - Copyright ORBIFLY December 2007 - Disclaimer

ORBIFLY MET'MAP TEAM :

Programming & Development : Alexandra Zaïnal
Concept & Development : Baudouin d'Aumeries
Co-Development & Prog : Marc-Olivier Méhu
Technical & hardware support : Manuel Goepfert

Contact : metmap@orbifly.com




SOURCES & CREDITS :

   NOAA